Laukaa, Finland
Kieli:  Suomi
CurCond
Päivitetty08/10/2019 09:50 
 

Lähistön Lentoasemien Säätiloja:

 

EFJY - Jyvaskyla (mil/C,) Finland
Etäisyys Sääasemalta: PKo 21km
Päivitetty: 22/10/2019 01:50
Enimmäkseen pilvistä
Enimmäkseen pilvistä
 Tuulen suunta E
Tuuli: E 13 km/h
Lämpötila: 1°C
Tuulen purevuus: -3°C
Kastepiste: 0°C
Ilmankosteus: 93%
Ilmanpaine: 1015 hPa
Pilvisyys: Enimmäkseen pilvistä
Näkyvyys: 10 km
Pilvisyystiedot: Joitain Pilviä 244 m
Enimmäkseen pilvistä 640 m
2019/10/21 22:50 EFJY 212250Z AUTO 19007KT 160V230 9999 FEW008 BKN021 01/M00 Q1015
EFHA - Halli (fin-Afb), Finland
Etäisyys Sääasemalta: Lo 56km
Päivitetty: 22/10/2019 01:50
Pilvistä
Pilvistä
 Tuulen suunta E
Tuuli: E 13 km/h
Lämpötila: 1°C
Tuulen purevuus: -3°C
Kastepiste: 0°C
Ilmankosteus: 93%
Ilmanpaine: 1016 hPa
Pilvisyys: Pilvistä
Näkyvyys: 10 km
Pilvisyystiedot: Pilvistä 305 m
2019/10/21 22:50 EFHA 212250Z AUTO 17007KT 140V200 9999 OVC010 01/00 Q1016
EFMI - Mikkeli, Finland
Etäisyys Sääasemalta: IKa 105km
Päivitetty: 22/10/2019 01:50
Enimmäkseen pilvistä
Enimmäkseen pilvistä
 Tuulen suunta ELo
Tuuli: ELo 6 km/h
Lämpötila: 1°C
Kastepiste: 1°C
Ilmankosteus: 100%
Ilmanpaine: 1018 hPa
Pilvisyys: Enimmäkseen pilvistä
Näkyvyys: 10 km
Pilvisyystiedot: Enimmäkseen pilvistä 701 m
2019/10/21 22:50 EFMI 212250Z AUTO 21003KT 9999 BKN023 01/01 Q1018
 
EFTP - Tampere/Pirkkala, Finland
Etäisyys Sääasemalta: Lo 135km
Päivitetty: 22/10/2019 01:50
Pilvistä
Pilvistä
 Tuulen suunta E
Tuuli: E 15 km/h
Lämpötila: 2°C
Tuulen purevuus: -2°C
Kastepiste: 1°C
Ilmankosteus: 93%
Ilmanpaine: 1017 hPa
Pilvisyys: Pilvistä
Näkyvyys: 10 km
Pilvisyystiedot: Puolipilvistä 640 m
Pilvistä 762 m
2019/10/21 22:50 EFTP 212250Z AUTO 17008KT 9999 SCT021 OVC025 02/01 Q1017
EFKU - Kuopio (mil/Civ), Finland
Etäisyys Sääasemalta: Ko 146km
Päivitetty: 22/10/2019 01:50
Heikko, Enimmäkseen pilvistä
Heikko, Enimmäkseen pilvistä
 Tuulen suunta E
Tuuli: E 13 km/h
Lämpötila: 0°C
Tuulen purevuus: -4°C
Kastepiste: -1°C
Ilmankosteus: 93%
Ilmanpaine: 1015 hPa
Yhteenveto: Heikko
Pilvisyys: Enimmäkseen pilvistä
Näkyvyys: 9 km
Pilvisyystiedot: Enimmäkseen pilvistä 671 m
2019/10/21 22:50 EFKU 212250Z AUTO 19007KT 9000 -UP BKN022 00/M01 Q1015
EFSI - Seinajoki-Ilmajo, Finland
Etäisyys Sääasemalta: LLu 149km
Päivitetty: 22/10/2019 01:50
Pilvistä
Pilvistä
 Tuulen suunta E
Tuuli: E 11 km/h
Lämpötila: 3°C
Tuulen purevuus: 0°C
Kastepiste: 3°C
Ilmankosteus: 100%
Ilmanpaine: 1013 hPa
Pilvisyys: Pilvistä
Näkyvyys: 5 km
Pilvisyystiedot: Joitain Pilviä 213 m
Enimmäkseen pilvistä 335 m
Pilvistä 427 m
2019/10/21 22:50 EFSI 212250Z AUTO 17006KT 140V210 5000 FEW007 BKN011 OVC014 03/03 Q1013